createdAt,value
2022-12-20T00:01:28.832Z,60.18
2022-12-20T00:05:45.092Z,60.05
2022-12-20T00:10:01.589Z,59.53
2022-12-20T00:14:18.230Z,60.21
2022-12-20T00:18:35.030Z,62.16
2022-12-20T00:22:51.146Z,60.18
2022-12-20T00:27:07.423Z,59.93
2022-12-20T00:31:24.956Z,59.90
2022-12-20T00:35:43.533Z,61.76
2022-12-20T00:39:59.897Z,60.36
2022-12-20T00:44:16.117Z,60.56
2022-12-20T00:48:33.249Z,61.65
2022-12-20T00:52:49.597Z,59.98
2022-12-20T00:57:05.867Z,61.48
2022-12-20T01:01:28.499Z,60.41
2022-12-20T01:05:55.924Z,60.75
2022-12-20T01:10:12.373Z,61.13
2022-12-20T01:14:28.548Z,61.60
2022-12-20T01:18:44.866Z,63.22
2022-12-20T01:23:01.147Z,62.19
2022-12-20T01:27:17.275Z,60.93
2022-12-20T01:31:34.068Z,61.95
2022-12-20T01:36:21.104Z,59.84
2022-12-20T01:40:40.128Z,61.14
2022-12-20T01:44:58.845Z,61.09
2022-12-20T01:49:19.815Z,60.54
2022-12-20T01:53:36.003Z,59.89
2022-12-20T01:58:12.455Z,60.65
2022-12-20T02:02:28.891Z,60.16
2022-12-20T02:06:45.199Z,58.90
2022-12-20T02:11:13.517Z,59.06
2022-12-20T02:15:56.745Z,58.64
2022-12-20T02:20:49.607Z,59.79
2022-12-20T02:25:37.554Z,60.63
2022-12-20T02:30:16.145Z,61.33
2022-12-20T02:34:34.142Z,61.68
2022-12-20T02:38:51.436Z,60.47
2022-12-20T02:43:29.292Z,62.92
2022-12-20T02:47:59.281Z,62.75
2022-12-20T02:52:15.813Z,61.73
2022-12-20T02:56:48.907Z,60.67
2022-12-20T03:01:27.923Z,59.75
2022-12-20T03:05:47.066Z,60.08
2022-12-20T03:10:03.241Z,59.21
2022-12-20T03:14:19.985Z,59.51
2022-12-20T03:18:36.181Z,60.61
2022-12-20T03:22:52.480Z,59.21
2022-12-20T03:27:09.332Z,59.03
2022-12-20T03:31:25.790Z,59.07
2022-12-20T03:35:42.234Z,58.48
2022-12-20T03:39:58.533Z,60.15
2022-12-20T03:44:14.741Z,59.61
2022-12-20T03:48:30.967Z,59.69
2022-12-20T03:52:47.171Z,59.19
2022-12-20T03:57:03.320Z,59.50
2022-12-20T04:01:28.567Z,58.83
2022-12-20T04:05:44.878Z,58.83
2022-12-20T04:10:01.059Z,59.12
2022-12-20T04:14:17.317Z,59.05
2022-12-20T04:18:33.497Z,58.89
2022-12-20T04:22:51.072Z,58.26
2022-12-20T04:27:07.348Z,58.72
2022-12-20T04:31:24.580Z,60.69
2022-12-20T04:35:41.014Z,59.91
2022-12-20T04:39:58.557Z,59.49
2022-12-20T04:44:14.768Z,58.51
2022-12-20T04:48:56.253Z,58.53
2022-12-20T04:53:25.758Z,59.35
2022-12-20T04:57:41.945Z,64.14
2022-12-20T05:01:58.242Z,62.15
2022-12-20T05:06:15.227Z,60.50
2022-12-20T05:10:31.573Z,57.18
2022-12-20T05:14:47.720Z,56.14
2022-12-20T05:19:04.846Z,57.06
2022-12-20T05:23:39.480Z,57.43
2022-12-20T05:27:58.749Z,57.87
2022-12-20T05:32:15.099Z,57.50
2022-12-20T05:36:31.416Z,57.08
2022-12-20T05:40:49.503Z,57.20
2022-12-20T05:45:06.434Z,56.80
2022-12-20T05:49:22.651Z,56.96
2022-12-20T05:53:38.868Z,57.81
2022-12-20T05:57:54.983Z,58.44
2022-12-20T06:02:12.511Z,57.25
2022-12-20T06:06:28.848Z,60.04
2022-12-20T06:10:45.010Z,59.48
2022-12-20T08:39:50.090Z,57.33
2022-12-20T08:44:07.216Z,57.40
2022-12-20T08:48:23.729Z,57.23
2022-12-20T08:52:40.433Z,55.94
2022-12-20T08:56:56.651Z,56.10
2022-12-20T09:01:17.965Z,55.92
2022-12-20T09:05:34.150Z,55.44
2022-12-20T09:09:50.455Z,55.13
2022-12-20T09:14:08.361Z,56.51
2022-12-20T09:18:24.454Z,54.97
2022-12-20T09:22:40.593Z,54.28
2022-12-20T09:26:56.813Z,54.44
2022-12-20T09:31:15.789Z,54.37
2022-12-20T09:35:33.708Z,53.24
2022-12-20T09:39:53.237Z,53.21
2022-12-20T09:44:31.842Z,54.32
2022-12-20T09:48:48.399Z,54.29
2022-12-20T09:53:20.295Z,54.26
2022-12-20T09:58:08.981Z,54.02
2022-12-20T10:02:55.531Z,52.62
2022-12-20T10:07:14.580Z,52.93
2022-12-20T10:11:51.480Z,51.89
2022-12-20T10:16:34.985Z,50.89
2022-12-20T10:21:16.283Z,51.38
2022-12-20T10:25:34.471Z,53.07
2022-12-20T10:29:51.129Z,51.24
2022-12-20T10:34:08.116Z,50.82
2022-12-20T10:38:24.926Z,50.15
2022-12-20T10:42:43.452Z,50.55
2022-12-20T10:47:01.585Z,51.76
2022-12-20T10:51:24.785Z,50.61
2022-12-20T10:55:44.561Z,49.93
2022-12-20T11:00:04.244Z,49.85
2022-12-20T11:04:32.542Z,48.81
2022-12-20T11:08:55.367Z,48.34
2022-12-20T11:13:26.110Z,50.41
2022-12-20T11:17:49.041Z,48.85
2022-12-20T11:22:17.453Z,48.78
2022-12-20T11:27:04.015Z,47.96
2022-12-20T11:31:41.601Z,47.83
2022-12-20T11:36:18.164Z,47.16
2022-12-20T11:40:39.156Z,47.09
2022-12-20T11:45:08.817Z,45.60
2022-12-20T11:49:50.949Z,45.25
2022-12-20T11:54:13.798Z,44.52
2022-12-20T11:58:40.388Z,44.24
2022-12-20T12:03:28.980Z,44.29
2022-12-20T12:07:47.985Z,43.85
2022-12-20T12:12:22.275Z,44.99
2022-12-20T12:16:40.965Z,46.16
2022-12-20T12:21:13.914Z,45.54
2022-12-20T12:25:30.188Z,45.61
2022-12-20T12:29:46.433Z,45.89
2022-12-20T12:34:39.436Z,46.47
2022-12-20T12:39:39.604Z,46.12
2022-12-20T12:43:58.934Z,47.31
2022-12-20T12:48:20.748Z,45.35
2022-12-20T12:52:51.617Z,45.09
2022-12-20T12:57:18.939Z,44.94
2022-12-20T13:02:19.902Z,46.32
2022-12-20T13:06:38.523Z,44.82
2022-12-20T13:10:57.267Z,43.43
2022-12-20T13:15:22.463Z,40.50
2022-12-20T13:19:39.418Z,40.60
2022-12-20T13:24:29.889Z,40.85
2022-12-20T13:43:51.203Z,34.08
2022-12-20T13:48:11.673Z,33.77
2022-12-20T13:52:44.520Z,31.82
2022-12-20T13:57:00.728Z,34.87
2022-12-20T14:01:17.103Z,37.58
2022-12-20T14:05:40.218Z,37.67
2022-12-20T14:10:01.956Z,37.41
2022-12-20T14:14:18.177Z,39.40
2022-12-20T14:18:34.386Z,41.75
2022-12-20T14:23:22.081Z,43.34
2022-12-20T14:27:38.859Z,45.58
2022-12-20T14:31:55.185Z,47.26
2022-12-20T14:36:17.550Z,50.29
2022-12-20T14:40:40.969Z,49.33
2022-12-20T14:45:09.203Z,50.00
2022-12-20T14:49:36.623Z,50.44
2022-12-20T14:54:00.115Z,51.08
2022-12-20T14:58:33.016Z,51.37
2022-12-20T15:03:25.103Z,53.01
2022-12-20T15:07:42.124Z,54.20
2022-12-20T15:11:58.586Z,54.19
2022-12-20T15:16:21.902Z,54.58
2022-12-20T15:20:38.515Z,54.32
2022-12-20T15:24:54.749Z,54.61
2022-12-20T15:29:33.229Z,54.63
2022-12-20T15:33:50.700Z,56.85
2022-12-20T15:38:09.921Z,55.02
2022-12-20T15:42:26.196Z,55.35
2022-12-20T15:46:43.024Z,56.59
2022-12-20T15:51:00.234Z,56.22
2022-12-20T15:55:16.456Z,55.41
2022-12-20T16:04:13.935Z,55.07
2022-12-20T16:08:31.096Z,56.32
2022-12-20T16:12:47.325Z,55.74
2022-12-20T16:17:05.618Z,56.61
2022-12-20T16:21:24.773Z,55.86
2022-12-20T16:25:40.997Z,57.56
2022-12-20T16:29:57.350Z,58.20
2022-12-20T16:34:16.019Z,59.12
2022-12-20T16:38:32.233Z,58.63
2022-12-20T16:42:51.322Z,56.94
2022-12-20T16:47:07.598Z,57.47
2022-12-20T16:51:27.251Z,58.24
2022-12-20T16:55:43.528Z,59.42
2022-12-20T16:59:59.926Z,59.16
2022-12-20T17:04:18.113Z,59.97
2022-12-20T17:08:52.916Z,59.90
2022-12-20T17:13:11.918Z,60.02
2022-12-20T17:17:28.246Z,59.16
2022-12-20T17:26:27.415Z,59.65
2022-12-20T17:30:43.764Z,59.80
2022-12-20T17:35:00.049Z,58.35
2022-12-20T17:39:16.940Z,59.14
2022-12-20T17:43:33.162Z,59.19
2022-12-20T17:47:49.733Z,59.39
2022-12-20T17:52:06.104Z,59.54
2022-12-20T17:56:33.197Z,58.22
2022-12-20T18:00:50.557Z,59.22
2022-12-20T18:05:07.725Z,58.52
2022-12-20T18:09:23.949Z,59.17
2022-12-20T18:13:44.762Z,59.32
2022-12-20T18:18:01.018Z,59.26
2022-12-20T18:22:17.386Z,60.09
2022-12-20T18:26:35.121Z,60.30
2022-12-20T18:30:51.425Z,60.50
2022-12-20T18:35:08.365Z,59.27
2022-12-20T18:39:24.683Z,60.07
2022-12-20T18:43:41.089Z,61.10
2022-12-20T18:47:57.358Z,60.08
2022-12-20T18:52:16.524Z,60.31
2022-12-20T18:56:36.711Z,58.97
2022-12-20T19:00:56.804Z,59.85
2022-12-20T19:05:13.120Z,59.38
2022-12-20T19:09:29.372Z,59.30
2022-12-20T19:13:45.845Z,59.54
2022-12-20T19:18:02.272Z,59.04
2022-12-20T19:22:18.613Z,59.23
2022-12-20T19:26:36.687Z,59.87
2022-12-20T19:30:53.026Z,59.96
2022-12-20T19:35:37.429Z,59.86
2022-12-20T19:39:45.713Z,59.94
2022-12-20T19:44:02.273Z,59.35
2022-12-20T19:48:18.773Z,59.69
2022-12-20T19:52:35.216Z,59.34
2022-12-20T19:56:51.412Z,60.14
2022-12-20T20:01:09.171Z,60.38
2022-12-20T20:05:25.383Z,60.24
2022-12-20T20:09:41.613Z,59.50
2022-12-20T20:13:57.975Z,59.67
2022-12-20T20:18:14.204Z,58.49
2022-12-20T20:22:30.452Z,58.88
2022-12-20T20:26:46.698Z,59.14
2022-12-20T20:31:03.899Z,58.72
2022-12-20T20:35:20.279Z,59.67
2022-12-20T20:39:36.541Z,60.83
2022-12-20T20:43:53.034Z,59.80
2022-12-20T20:48:09.767Z,59.13
2022-12-20T20:52:26.017Z,58.91
2022-12-20T20:56:42.362Z,58.70
2022-12-20T21:01:00.516Z,59.71
2022-12-20T21:06:06.221Z,58.25
2022-12-20T21:09:53.820Z,59.27
2022-12-20T21:14:11.303Z,59.26
2022-12-20T21:18:27.577Z,59.25
2022-12-20T21:22:44.048Z,59.28
2022-12-20T21:27:00.318Z,58.82
2022-12-20T21:31:18.660Z,57.90
2022-12-20T21:35:34.938Z,57.97
2022-12-20T21:39:51.635Z,58.72
2022-12-20T21:44:07.987Z,57.80
2022-12-20T21:48:25.101Z,57.31
2022-12-20T21:52:42.073Z,57.54
2022-12-20T21:56:58.545Z,57.82
2022-12-20T22:01:17.212Z,58.62
2022-12-20T22:05:33.489Z,58.13
2022-12-20T22:09:49.730Z,58.04
2022-12-20T22:14:06.961Z,57.51
2022-12-20T22:18:24.287Z,57.68
2022-12-20T22:22:41.321Z,57.27
2022-12-20T22:26:57.644Z,57.45
2022-12-20T22:31:14.648Z,58.80
2022-12-20T22:35:31.072Z,58.24
2022-12-20T22:39:49.500Z,57.92
2022-12-20T22:44:05.864Z,58.59
2022-12-20T22:48:22.159Z,59.34
2022-12-20T22:52:38.412Z,57.64
2022-12-20T22:56:54.592Z,57.37
2022-12-20T23:01:13.099Z,58.25
2022-12-20T23:05:29.364Z,58.18
2022-12-20T23:09:45.495Z,57.79
2022-12-20T23:14:20.308Z,57.42
2022-12-20T23:18:36.499Z,58.34
2022-12-20T23:22:53.044Z,58.04
2022-12-20T23:27:09.254Z,57.92
2022-12-20T23:31:25.511Z,58.65
2022-12-20T23:35:42.115Z,57.70
2022-12-20T23:39:58.356Z,57.29
2022-12-20T23:44:14.637Z,57.54
2022-12-20T23:48:31.393Z,57.54
2022-12-20T23:52:47.621Z,58.36
2022-12-20T23:57:03.889Z,58.47
